WetterOnline ( https://www.wetteronline.de )

Wetter aktuell Lütetsburg

Aktuelles Wetter: Norderney (16m)

6-stündlich | Neueste Meldungen
Ortszeit Temperatur Wetter
Fr, 05.03. 13:00 4.6° C leicht bewölkt
Fr, 05.03. 7:00 2.4° C leicht bewölkt
Fr, 05.03. 1:00 3.2° C bedeckt
Do, 04.03. 19:00 3.0° C wolkig
Do, 04.03. 13:00 4.6° C bewölkt
Do, 04.03. 7:00 3.4° C bedeckt
Do, 04.03. 1:00 2.6° C bedeckt
Mi, 03.03. 19:00 3.0° C Nebel
Ortszeit Temperatur Wetter
Fr, 05.03. 17:00 4.2° C fast wolkenlos
Fr, 05.03. 16:50 4.2° C fast wolkenlos
Fr, 05.03. 16:40 4.1° C fast wolkenlos
Fr, 05.03. 16:30 4.4° C fast wolkenlos
Fr, 05.03. 16:20 4.4° C wolkenlos
Fr, 05.03. 16:10 4.5° C wolkenlos
Fr, 05.03. 16:00 4.5° C wolkenlos
Fr, 05.03. 15:30 4.1° C leicht bewölkt
Fr, 05.03. 15:00 4.6° C wolkenlos
Fr, 05.03. 14:30 4.6° C wolkenlos
Fr, 05.03. 14:00 4.9° C leicht bewölkt
Ortszeit Relative Feuchte Sichtweite
Fr, 05.03. 13:00 68% 24 km
Fr, 05.03. 7:00 66% 27 km
Fr, 05.03. 1:00 62% 18 km
Do, 04.03. 19:00 78% 22 km
Do, 04.03. 13:00 79% 11 km
Do, 04.03. 7:00 90% 40 km
Do, 04.03. 1:00 96% 3.2 km
Mi, 03.03. 19:00 99% 0.2 km
Ortszeit Relative Feuchte Sichtweite
Fr, 05.03. 17:00 76% 12 km
Fr, 05.03. 16:50 76% -
Fr, 05.03. 16:40 75% -
Fr, 05.03. 16:30 76% 11 km
Fr, 05.03. 16:20 76% -
Fr, 05.03. 16:10 76% -
Fr, 05.03. 16:00 74% 17 km
Fr, 05.03. 15:30 78% 12 km
Fr, 05.03. 15:00 77% 16 km
Fr, 05.03. 14:30 73% 16 km
Fr, 05.03. 14:00 70% 22 km
Ortszeit Niederschlagsmenge Niederschlagsart
Fr, 05.03. 13:00 0.0 l/m2 in 6 Std. -
Fr, 05.03. 7:00 0.0 l/m2 in 12 Std. -
Fr, 05.03. 1:00 0.0 l/m2 in 6 Std. -
Do, 04.03. 19:00 0.0 l/m2 in 12 Std. -
Do, 04.03. 13:00 0.0 l/m2 in 6 Std. -
Do, 04.03. 7:00 0.1 l/m2 in 12 Std. Sprühregen
Do, 04.03. 1:00 0.0 l/m2 in 6 Std. -
Mi, 03.03. 19:00 0.0 l/m2 in 12 Std. -
Ortszeit Niederschlagsmenge Niederschlagsart
Fr, 05.03. 17:00 0.0 l/m2 in 1 Std. -
Fr, 05.03. 16:50 keine Meldung -
Fr, 05.03. 16:40 keine Meldung -
Fr, 05.03. 16:30 0.0 l/m2 in 1 Std. -
Fr, 05.03. 16:20 keine Meldung -
Fr, 05.03. 16:10 keine Meldung -
Fr, 05.03. 16:00 0.0 l/m2 in 1 Std. -
Fr, 05.03. 15:30 0.0 l/m2 in 1 Std. -
Fr, 05.03. 15:00 0.0 l/m2 in 1 Std. -
Fr, 05.03. 14:30 0.0 l/m2 in 1 Std. -
Fr, 05.03. 14:00 0.0 l/m2 in 1 Std. -
Ortszeit Stärke Spitze Richtung
km/h Bft. km/h Grad Sektor
Fr, 05.03. 13:00 14 3 25 310° NW
Fr, 05.03. 7:00 22 4 47 20° N
Fr, 05.03. 1:00 26 4 39 40° NO
Do, 04.03. 19:00 30 5 44 50° NO
Do, 04.03. 13:00 22 4 32 330° NW
Do, 04.03. 7:00 19 3 30 270° W
Do, 04.03. 1:00 17 3 30 320° NW
Mi, 03.03. 19:00 22 4 33 300° NW
Ortszeit Stärke Spitze Richtung
km/h Bft. km/h Grad Sektor
Fr, 05.03. 17:00 14 3 18 310° NW
Fr, 05.03. 16:50 14 3 - 310° NW
Fr, 05.03. 16:40 15 3 - 300° NW
Fr, 05.03. 16:30 13 3 15 290° W
Fr, 05.03. 16:20 13 3 - 290° W
Fr, 05.03. 16:10 13 3 - 290° W
Fr, 05.03. 16:00 13 3 15 290° W
Fr, 05.03. 15:30 14 3 14 300° NW
Fr, 05.03. 15:00 15 3 19 310° NW
Fr, 05.03. 14:30 17 3 19 290° W
Fr, 05.03. 14:00 14 3 18 290° W
Ortszeit Untergrenze Bedeckung Gattung
total tief tief mittel hoch
Fr, 05.03. 13:00 9000 m 6/8 0/8 - - -
Fr, 05.03. 7:00 1050 m 2/8 2/8 - - -
Fr, 05.03. 1:00 1500 m 8/8 8/8 - - -
Do, 04.03. 19:00 420 m 6/8 6/8 - - -
Do, 04.03. 13:00 600 m 7/8 7/8 - - -
Do, 04.03. 7:00 510 m 8/8 8/8 - - -
Do, 04.03. 1:00 90 m 8/8 8/8 - - -
Mi, 03.03. 19:00 <30 m 8/8 0/8 - - -
Ortszeit Bedeckungsgrad in Achtel und Wolkenuntergrenze
Fr, 05.03. 17:00 1(1020m)
Fr, 05.03. 16:50 1(1020m)
Fr, 05.03. 16:40 1(1020m)
Fr, 05.03. 16:30 2(1020m)
Fr, 05.03. 16:20 keine Wolken
Fr, 05.03. 16:10 keine Wolken
Fr, 05.03. 16:00 keine Wolken
Fr, 05.03. 15:30 3(1200m)
Fr, 05.03. 15:00 keine Wolken
Fr, 05.03. 14:30 keine Wolken
Fr, 05.03. 14:00 1(1050m)
Ortszeit Luftdruck NN (hPa) Tendenz (hPa in 3 Std.)
Fr, 05.03. 13:00 1030 + 1,4
Fr, 05.03. 7:00 1028 + 1,5
Fr, 05.03. 1:00 1025 + 1,9
Do, 04.03. 19:00 1021 + 1,6
Do, 04.03. 13:00 1020 0,0
Do, 04.03. 7:00 1021 - 1,7
Do, 04.03. 1:00 1024 - 1,1
Mi, 03.03. 19:00 1025 - 0,5
Ortszeit Luftdruck NN (hPa) Tendenz (hPa in 3 Std.)
Fr, 05.03. 17:00 1031 + 0,5
Fr, 05.03. 16:50 1031 keine Meldung
Fr, 05.03. 16:40 1031 keine Meldung
Fr, 05.03. 16:30 1031 + 0,4
Fr, 05.03. 16:20 1031 keine Meldung
Fr, 05.03. 16:10 1031 keine Meldung
Fr, 05.03. 16:00 1031 + 0,3
Fr, 05.03. 15:30 1031 + 0,4
Fr, 05.03. 15:00 1031 + 0,5
Fr, 05.03. 14:30 1030 + 0,6
Fr, 05.03. 14:00 1030 + 0,8
Ortszeit Schneehöhe (cm)
Fr, 05.03. 13:00 0
Fr, 05.03. 7:00 0
Fr, 05.03. 1:00 0
Do, 04.03. 19:00 0
Do, 04.03. 13:00 0
Do, 04.03. 7:00 0
Do, 04.03. 1:00 0
Mi, 03.03. 19:00 0
Ortszeit Schneehöhe (cm)
Fr, 05.03. 17:00 0
Fr, 05.03. 16:50 0
Fr, 05.03. 16:40 0
Fr, 05.03. 16:30 0
Fr, 05.03. 16:20 -
Fr, 05.03. 16:10 -
Fr, 05.03. 16:00 0
Fr, 05.03. 15:30 -
Fr, 05.03. 15:00 0
Fr, 05.03. 14:30 -
Fr, 05.03. 14:00 0
Link zu dieser Seite / Seite empfehlen

Das Wetter in ...